createdAt,value
2018-07-25T00:00:06.521Z,99.90
2018-07-25T00:01:10.582Z,99.90
2018-07-25T00:02:14.656Z,99.50
2018-07-25T00:03:18.672Z,99.30
2018-07-25T00:04:22.757Z,99.40
2018-07-25T00:05:27.108Z,99.60
2018-07-25T00:06:31.196Z,99.50
2018-07-25T00:07:35.279Z,99.60
2018-07-25T00:08:39.777Z,99.60
2018-07-25T00:09:43.931Z,99.60
2018-07-25T00:10:53.337Z,99.40
2018-07-25T00:11:57.449Z,99.30
2018-07-25T00:13:01.648Z,99.10
2018-07-25T00:14:06.058Z,98.90
2018-07-25T00:15:10.155Z,99.00
2018-07-25T00:16:14.215Z,99.10
2018-07-25T00:17:18.253Z,99.30
2018-07-25T00:18:22.314Z,99.10
2018-07-25T00:19:26.366Z,99.20
2018-07-25T00:20:30.622Z,99.10
2018-07-25T00:21:34.704Z,99.10
2018-07-25T00:22:38.829Z,99.50
2018-07-25T00:23:42.890Z,99.60
2018-07-25T00:24:46.934Z,99.10
2018-07-25T00:25:51.144Z,99.20
2018-07-25T00:26:55.228Z,99.20
2018-07-25T00:27:59.333Z,99.10
2018-07-25T00:29:03.339Z,99.10
2018-07-25T00:30:07.642Z,99.10
2018-07-25T00:31:11.742Z,99.20
2018-07-25T00:32:15.791Z,99.20
2018-07-25T00:33:20.129Z,99.40
2018-07-25T00:34:24.207Z,99.80
2018-07-25T00:35:28.237Z,99.80
2018-07-25T00:36:32.426Z,99.90
2018-07-25T00:37:36.533Z,99.90
2018-07-25T00:38:40.819Z,99.90
2018-07-25T00:39:45.113Z,99.90
2018-07-25T00:40:49.177Z,99.90
2018-07-25T00:41:53.263Z,99.90
2018-07-25T00:44:01.220Z,99.80
2018-07-25T00:45:05.483Z,99.90
2018-07-25T00:46:09.826Z,99.90
2018-07-25T00:47:14.097Z,99.90
2018-07-25T00:48:18.225Z,99.90
2018-07-25T00:49:22.318Z,99.90
2018-07-25T00:50:26.625Z,99.90
2018-07-25T00:51:30.994Z,99.90
2018-07-25T00:52:35.016Z,99.90
2018-07-25T00:53:39.107Z,99.90
2018-07-25T00:54:43.919Z,99.90
2018-07-25T00:55:47.967Z,99.90
2018-07-25T00:56:52.019Z,99.90
2018-07-25T00:57:56.027Z,99.90
2018-07-25T00:59:00.104Z,99.90
2018-07-25T01:00:04.740Z,99.90
2018-07-25T01:01:08.791Z,99.70
2018-07-25T01:02:13.098Z,99.80
2018-07-25T01:03:17.257Z,99.80
2018-07-25T01:04:21.269Z,99.90
2018-07-25T01:05:25.381Z,99.80
2018-07-25T01:06:29.399Z,99.80
2018-07-25T01:07:33.426Z,99.70
2018-07-25T01:09:41.259Z,99.70
2018-07-25T01:10:45.353Z,99.70
2018-07-25T01:11:49.501Z,99.70
2018-07-25T01:12:53.564Z,99.60
2018-07-25T01:13:57.611Z,99.60
2018-07-25T01:15:01.674Z,99.60
2018-07-25T01:16:05.798Z,99.60
2018-07-25T01:17:09.939Z,99.60
2018-07-25T01:18:13.984Z,99.70
2018-07-25T01:19:18.014Z,99.90
2018-07-25T01:20:22.179Z,99.90
2018-07-25T01:21:26.271Z,99.90
2018-07-25T01:22:30.335Z,99.90
2018-07-25T01:23:34.418Z,99.90
2018-07-25T01:24:38.625Z,99.90
2018-07-25T01:25:42.684Z,99.90
2018-07-25T01:26:46.724Z,99.90
2018-07-25T01:27:50.758Z,99.90
2018-07-25T01:28:54.792Z,99.90
2018-07-25T01:29:58.857Z,99.90
2018-07-25T01:32:06.802Z,99.90
2018-07-25T01:33:10.880Z,99.90
2018-07-25T01:34:14.989Z,99.90
2018-07-25T01:35:19.092Z,99.90
2018-07-25T01:36:23.121Z,99.90
2018-07-25T01:37:27.226Z,99.90
2018-07-25T01:38:31.290Z,99.90
2018-07-25T01:39:35.312Z,99.90
2018-07-25T01:40:39.329Z,99.90
2018-07-25T01:41:43.515Z,99.90
2018-07-25T01:42:47.692Z,99.90
2018-07-25T01:43:51.840Z,99.90
2018-07-25T01:44:55.850Z,99.90
2018-07-25T01:45:59.895Z,99.90
2018-07-25T01:47:03.974Z,99.90
2018-07-25T01:48:08.070Z,99.90
2018-07-25T01:49:12.244Z,99.90
2018-07-25T01:50:16.363Z,99.90
2018-07-25T01:51:20.655Z,99.90
2018-07-25T01:52:24.834Z,99.90
2018-07-25T01:53:28.960Z,99.90
2018-07-25T01:54:33.026Z,99.90
2018-07-25T01:55:37.075Z,99.90
2018-07-25T01:56:41.231Z,99.90
2018-07-25T01:57:45.378Z,99.90
2018-07-25T01:58:49.574Z,99.90
2018-07-25T01:59:53.626Z,99.90
2018-07-25T02:00:57.640Z,99.90
2018-07-25T02:02:01.656Z,99.90
2018-07-25T02:03:06.323Z,99.90
2018-07-25T02:04:10.422Z,99.90
2018-07-25T02:05:14.506Z,99.90
2018-07-25T02:06:18.605Z,99.90
2018-07-25T02:07:22.620Z,99.90
2018-07-25T02:08:26.655Z,99.90
2018-07-25T02:09:30.816Z,99.90
2018-07-25T02:10:38.138Z,99.90
2018-07-25T02:11:42.216Z,99.90
2018-07-25T02:12:46.405Z,99.90
2018-07-25T02:13:50.511Z,99.90
2018-07-25T02:14:54.546Z,99.90
2018-07-25T02:15:58.546Z,99.90
2018-07-25T02:17:02.602Z,99.90
2018-07-25T02:18:07.050Z,99.90
2018-07-25T02:19:11.211Z,99.90
2018-07-25T02:21:18.938Z,99.90
2018-07-25T02:22:23.021Z,99.90
2018-07-25T02:23:27.229Z,99.90
2018-07-25T02:24:31.388Z,99.90
2018-07-25T02:25:35.593Z,99.90
2018-07-25T02:26:39.667Z,99.90
2018-07-25T02:27:43.688Z,99.90
2018-07-25T02:28:47.780Z,99.90
2018-07-25T02:29:51.814Z,99.90
2018-07-25T02:30:55.926Z,99.90
2018-07-25T02:32:00.101Z,99.90
2018-07-25T02:33:04.140Z,99.90
2018-07-25T02:34:13.489Z,99.90
2018-07-25T02:35:17.534Z,99.90
2018-07-25T02:36:21.564Z,99.90
2018-07-25T02:37:25.767Z,99.90
2018-07-25T02:38:29.805Z,99.90
2018-07-25T02:39:33.890Z,99.90
2018-07-25T02:40:37.997Z,99.90
2018-07-25T02:41:42.751Z,99.90
2018-07-25T02:42:46.931Z,99.90
2018-07-25T02:43:51.138Z,99.90
2018-07-25T02:44:55.153Z,99.90
2018-07-25T02:45:59.322Z,99.90
2018-07-25T02:47:03.415Z,99.90
2018-07-25T02:48:07.436Z,99.90
2018-07-25T02:49:11.443Z,99.90
2018-07-25T02:50:15.446Z,99.90
2018-07-25T02:51:19.660Z,99.90
2018-07-25T02:52:23.699Z,99.90
2018-07-25T02:53:27.722Z,99.90
2018-07-25T02:54:31.754Z,99.90
2018-07-25T02:55:35.886Z,99.90
2018-07-25T02:56:39.933Z,99.90
2018-07-25T02:57:43.936Z,99.90
2018-07-25T02:58:47.957Z,99.90
2018-07-25T02:59:53.278Z,99.90
2018-07-25T03:00:58.941Z,99.90
2018-07-25T03:02:03.115Z,99.90
2018-07-25T03:03:07.151Z,99.90
2018-07-25T03:04:11.175Z,99.90
2018-07-25T03:05:15.232Z,99.90
2018-07-25T03:06:19.281Z,99.90
2018-07-25T03:07:23.271Z,99.90
2018-07-25T03:08:27.447Z,99.90
2018-07-25T03:09:31.598Z,99.90
2018-07-25T03:10:35.764Z,99.90
2018-07-25T03:11:39.882Z,99.90
2018-07-25T03:12:43.935Z,99.90
2018-07-25T03:13:48.015Z,99.90
2018-07-25T03:14:52.034Z,99.90
2018-07-25T03:16:06.533Z,99.90
2018-07-25T03:17:10.739Z,99.90
2018-07-25T03:18:14.871Z,99.90
2018-07-25T03:19:18.966Z,99.90
2018-07-25T03:20:23.212Z,99.90
2018-07-25T03:21:27.293Z,99.90
2018-07-25T03:22:31.411Z,99.90
2018-07-25T03:23:36.326Z,99.90
2018-07-25T03:24:40.536Z,99.90
2018-07-25T03:25:44.663Z,99.90
2018-07-25T03:26:48.814Z,99.90
2018-07-25T03:27:52.831Z,99.90
2018-07-25T03:28:56.846Z,99.90
2018-07-25T03:30:00.970Z,99.90
2018-07-25T03:31:05.061Z,99.90
2018-07-25T03:32:09.141Z,99.90
2018-07-25T03:33:13.167Z,99.90
2018-07-25T03:34:17.218Z,99.90
2018-07-25T03:35:21.219Z,99.90
2018-07-25T03:36:25.295Z,99.90
2018-07-25T03:37:29.333Z,99.90
2018-07-25T03:38:33.518Z,99.90
2018-07-25T03:39:37.646Z,99.90
2018-07-25T03:40:41.777Z,99.90
2018-07-25T03:41:45.880Z,99.90
2018-07-25T03:42:49.906Z,99.90
2018-07-25T03:43:54.053Z,99.90
2018-07-25T03:44:58.061Z,99.90
2018-07-25T03:46:02.157Z,99.90
2018-07-25T03:47:06.477Z,99.90
2018-07-25T03:48:10.658Z,99.90
2018-07-25T03:49:14.704Z,99.90
2018-07-25T03:50:18.768Z,99.90
2018-07-25T03:51:22.769Z,99.90
2018-07-25T03:52:27.070Z,99.90
2018-07-25T03:53:31.156Z,99.90
2018-07-25T03:54:35.349Z,99.90
2018-07-25T03:55:39.419Z,99.90
2018-07-25T03:56:43.472Z,99.90
2018-07-25T03:57:47.494Z,99.90
2018-07-25T03:58:51.543Z,99.90
2018-07-25T03:59:55.603Z,99.90
2018-07-25T04:00:59.704Z,99.90
2018-07-25T04:02:03.845Z,99.90
2018-07-25T04:03:07.844Z,99.90
2018-07-25T04:04:12.000Z,99.90
2018-07-25T04:05:16.383Z,99.90
2018-07-25T04:06:20.360Z,99.90
2018-07-25T04:07:24.466Z,99.90
2018-07-25T04:08:28.752Z,99.90
2018-07-25T04:09:32.925Z,99.90
2018-07-25T04:10:37.061Z,99.90
2018-07-25T04:11:41.125Z,99.90
2018-07-25T04:12:45.331Z,99.90
2018-07-25T04:13:49.454Z,99.90
2018-07-25T04:14:53.613Z,99.90
2018-07-25T04:15:57.667Z,99.90
2018-07-25T04:17:01.706Z,99.90
2018-07-25T04:18:06.074Z,99.90
2018-07-25T04:19:10.331Z,99.90
2018-07-25T04:20:15.844Z,99.90
2018-07-25T04:21:19.940Z,99.90
2018-07-25T04:22:24.118Z,99.90
2018-07-25T04:23:28.509Z,99.90
2018-07-25T04:24:32.639Z,99.90
2018-07-25T04:25:36.714Z,99.90
2018-07-25T04:26:40.818Z,99.90
2018-07-25T04:27:45.960Z,99.90
2018-07-25T04:28:50.054Z,99.90
2018-07-25T04:29:54.523Z,99.90
2018-07-25T04:30:58.981Z,99.90
2018-07-25T04:32:03.123Z,99.90
2018-07-25T04:33:07.332Z,99.90
2018-07-25T04:34:11.486Z,99.90
2018-07-25T04:35:16.511Z,99.90
2018-07-25T04:36:20.550Z,99.90
2018-07-25T04:37:24.671Z,99.90
2018-07-25T04:38:28.786Z,99.90
2018-07-25T04:39:32.840Z,99.90
2018-07-25T04:40:36.935Z,99.90
2018-07-25T04:41:41.328Z,99.90
2018-07-25T04:42:45.635Z,99.90
2018-07-25T04:43:49.757Z,99.90
2018-07-25T04:44:53.780Z,99.90
2018-07-25T04:45:57.832Z,99.90
2018-07-25T04:47:01.911Z,99.90
2018-07-25T04:48:05.988Z,99.90
2018-07-25T04:49:10.019Z,99.90
2018-07-25T04:50:14.316Z,99.90
2018-07-25T04:51:19.139Z,99.90
2018-07-25T04:52:23.295Z,99.90
2018-07-25T04:53:27.401Z,99.90
2018-07-25T04:54:32.175Z,99.90
2018-07-25T04:55:36.330Z,99.90
2018-07-25T04:56:40.807Z,99.90
2018-07-25T04:57:44.896Z,99.90
2018-07-25T04:58:48.983Z,99.90
2018-07-25T04:59:53.100Z,99.90
2018-07-25T05:00:57.955Z,99.90
2018-07-25T05:02:02.130Z,99.90
2018-07-25T05:03:06.190Z,99.90
2018-07-25T05:05:14.003Z,99.90
2018-07-25T05:06:18.271Z,99.90
2018-07-25T05:07:23.649Z,99.90
2018-07-25T05:08:27.742Z,99.90
2018-07-25T05:09:32.082Z,99.90
2018-07-25T05:10:36.113Z,99.90
2018-07-25T05:11:40.237Z,99.90
2018-07-25T05:12:44.476Z,99.90
2018-07-25T05:13:48.524Z,99.90
2018-07-25T05:14:52.861Z,99.90
2018-07-25T05:15:56.935Z,99.90
2018-07-25T05:17:01.010Z,99.90
2018-07-25T05:18:05.111Z,99.90
2018-07-25T05:19:09.214Z,99.90
2018-07-25T05:20:13.290Z,99.90
2018-07-25T05:21:17.342Z,99.90
2018-07-25T05:22:21.415Z,99.90
2018-07-25T05:23:25.466Z,99.90
2018-07-25T05:24:29.542Z,99.90
2018-07-25T05:25:33.639Z,99.90
2018-07-25T05:26:37.727Z,99.90
2018-07-25T05:27:41.830Z,99.90
2018-07-25T05:28:45.846Z,99.90
2018-07-25T05:29:49.886Z,99.90
2018-07-25T05:30:54.058Z,99.90
2018-07-25T05:31:58.257Z,99.70
2018-07-25T05:33:02.312Z,99.70
2018-07-25T05:35:10.228Z,99.90
2018-07-25T05:36:14.279Z,99.50
2018-07-25T05:37:18.319Z,99.30
2018-07-25T05:38:22.647Z,99.30
2018-07-25T05:39:26.675Z,99.30
2018-07-25T05:40:30.767Z,99.40
2018-07-25T05:41:34.856Z,99.40
2018-07-25T05:42:38.945Z,99.20
2018-07-25T05:43:43.373Z,99.20
2018-07-25T05:44:47.382Z,99.20
2018-07-25T05:45:51.441Z,99.30
2018-07-25T05:46:55.579Z,99.40
2018-07-25T05:47:59.643Z,99.40
2018-07-25T05:49:04.043Z,99.40
2018-07-25T05:50:08.212Z,99.40
2018-07-25T05:51:12.350Z,99.10
2018-07-25T05:52:16.410Z,99.20
2018-07-25T05:53:20.673Z,99.20
2018-07-25T05:54:24.855Z,99.20
2018-07-25T05:55:28.930Z,99.00
2018-07-25T05:56:32.970Z,99.30
2018-07-25T05:57:37.063Z,99.10
2018-07-25T05:58:41.124Z,99.00
2018-07-25T05:59:45.322Z,99.10
2018-07-25T06:00:49.322Z,99.00
2018-07-25T06:01:53.500Z,99.40
2018-07-25T06:02:57.651Z,99.20
2018-07-25T06:04:01.637Z,99.10
2018-07-25T06:05:05.726Z,99.00
2018-07-25T06:06:09.900Z,98.90
2018-07-25T06:07:13.990Z,99.10
2018-07-25T06:08:18.044Z,99.10
2018-07-25T06:09:22.190Z,99.60
2018-07-25T06:10:26.361Z,99.20
2018-07-25T06:11:30.489Z,98.90
2018-07-25T06:12:34.642Z,99.00
2018-07-25T06:13:38.674Z,98.90
2018-07-25T06:14:42.739Z,98.90
2018-07-25T06:15:46.763Z,98.70
2018-07-25T06:16:50.822Z,98.90
2018-07-25T06:17:55.228Z,98.90
2018-07-25T06:18:59.456Z,99.00
2018-07-25T06:20:03.748Z,98.70
2018-07-25T06:21:07.855Z,98.60
2018-07-25T06:22:13.072Z,98.60
2018-07-25T06:23:17.148Z,98.30
2018-07-25T06:24:21.412Z,98.30
2018-07-25T06:25:25.591Z,98.10
2018-07-25T06:26:29.787Z,98.20
2018-07-25T06:27:33.998Z,98.10
2018-07-25T06:28:38.028Z,98.00
2018-07-25T06:29:42.210Z,97.80
2018-07-25T06:30:46.325Z,98.00
2018-07-25T06:31:50.349Z,97.90
2018-07-25T06:32:54.414Z,98.00
2018-07-25T06:33:58.514Z,98.00
2018-07-25T06:35:02.560Z,98.10
2018-07-25T06:36:06.895Z,98.00
2018-07-25T06:37:10.991Z,97.70
2018-07-25T06:38:15.362Z,97.70
2018-07-25T06:39:19.606Z,97.60
2018-07-25T06:40:23.660Z,97.40
2018-07-25T06:41:27.795Z,97.50
2018-07-25T06:42:31.919Z,97.20
2018-07-25T06:43:36.099Z,97.40
2018-07-25T06:44:40.320Z,97.50
2018-07-25T06:45:44.412Z,97.40
2018-07-25T06:46:48.481Z,97.40
2018-07-25T06:47:52.642Z,97.30
2018-07-25T06:48:56.683Z,97.20
2018-07-25T06:50:00.726Z,97.10
2018-07-25T06:52:08.463Z,97.00
2018-07-25T06:53:12.594Z,97.00
2018-07-25T06:54:16.735Z,96.80
2018-07-25T06:55:20.788Z,96.90
2018-07-25T06:56:24.867Z,97.00
2018-07-25T06:57:29.055Z,97.10
2018-07-25T06:58:33.298Z,97.30
2018-07-25T06:59:37.588Z,97.10
2018-07-25T07:00:41.680Z,97.10
2018-07-25T07:01:45.691Z,97.20
2018-07-25T07:02:49.794Z,96.80
2018-07-25T07:03:54.004Z,96.90
2018-07-25T07:04:58.406Z,96.90
2018-07-25T07:06:02.509Z,97.20
2018-07-25T07:07:06.593Z,96.80
2018-07-25T07:08:10.721Z,96.80
2018-07-25T07:09:14.800Z,96.60
2018-07-25T07:10:18.886Z,96.60
2018-07-25T07:11:22.947Z,96.60
2018-07-25T07:12:27.219Z,96.80
2018-07-25T07:13:31.282Z,96.70
2018-07-25T07:14:35.490Z,96.70
2018-07-25T07:15:39.547Z,96.40
2018-07-25T07:16:43.673Z,96.40
2018-07-25T07:17:47.735Z,96.40
2018-07-25T07:18:51.786Z,96.30
2018-07-25T07:19:55.946Z,96.20
2018-07-25T07:21:00.155Z,96.10
2018-07-25T07:22:04.406Z,96.50
2018-07-25T07:23:08.467Z,96.20
2018-07-25T07:24:12.531Z,96.20
2018-07-25T07:25:16.598Z,96.30
2018-07-25T07:26:20.707Z,96.20
2018-07-25T07:27:24.850Z,96.10
2018-07-25T07:28:29.001Z,96.00
2018-07-25T07:29:33.035Z,96.10
2018-07-25T07:30:37.181Z,96.10
2018-07-25T07:31:41.195Z,96.00
2018-07-25T07:32:45.265Z,96.00
2018-07-25T07:33:49.293Z,95.90
2018-07-25T07:34:53.424Z,95.80
2018-07-25T07:35:57.494Z,95.50
2018-07-25T07:37:01.554Z,95.80
2018-07-25T07:38:06.044Z,95.80
2018-07-25T07:39:12.220Z,95.60
2018-07-25T07:40:16.319Z,95.10
2018-07-25T07:41:20.346Z,95.40
2018-07-25T07:42:24.400Z,95.90
2018-07-25T07:43:29.008Z,95.50
2018-07-25T07:44:33.189Z,94.70
2018-07-25T07:45:37.412Z,94.20
2018-07-25T07:46:41.446Z,94.10
2018-07-25T07:47:45.536Z,94.30
2018-07-25T07:48:49.539Z,94.30
2018-07-25T07:49:53.525Z,94.40
2018-07-25T07:50:57.563Z,94.50
2018-07-25T07:52:01.649Z,94.40
2018-07-25T07:53:05.854Z,94.10
2018-07-25T07:54:09.940Z,94.10
2018-07-25T07:55:14.155Z,94.00
2018-07-25T07:56:18.180Z,93.70
2018-07-25T07:57:22.300Z,93.60
2018-07-25T07:58:27.218Z,93.70
2018-07-25T07:59:31.388Z,93.70
2018-07-25T08:00:35.461Z,93.80
2018-07-25T08:01:39.594Z,93.80
2018-07-25T08:02:43.625Z,94.00
2018-07-25T08:03:47.638Z,94.00
2018-07-25T08:04:51.724Z,93.80
2018-07-25T08:05:55.767Z,93.60
2018-07-25T08:06:59.838Z,93.50
2018-07-25T08:08:03.895Z,93.50
2018-07-25T08:09:10.240Z,93.90
2018-07-25T08:10:14.475Z,93.70
2018-07-25T08:11:19.173Z,93.80
2018-07-25T08:12:23.287Z,93.80
2018-07-25T08:13:27.337Z,93.60
2018-07-25T08:14:31.384Z,93.20
2018-07-25T08:15:35.590Z,93.30
2018-07-25T08:16:39.611Z,93.70
2018-07-25T08:17:43.785Z,92.90
2018-07-25T08:18:47.952Z,93.10
2018-07-25T08:19:52.011Z,93.10
2018-07-25T08:20:56.268Z,93.10
2018-07-25T08:22:00.385Z,93.10
2018-07-25T08:23:04.483Z,93.10
2018-07-25T08:24:08.576Z,93.00
2018-07-25T08:25:12.698Z,92.80
2018-07-25T08:26:16.818Z,92.60
2018-07-25T08:27:21.031Z,92.20
2018-07-25T08:28:25.095Z,92.40
2018-07-25T08:29:29.416Z,92.70
2018-07-25T08:30:33.462Z,92.80
2018-07-25T08:31:37.558Z,92.50
2018-07-25T08:32:41.659Z,92.50
2018-07-25T08:33:45.655Z,91.90
2018-07-25T08:34:49.865Z,92.40
2018-07-25T08:35:53.859Z,92.30
2018-07-25T08:36:57.962Z,92.20
2018-07-25T08:38:02.132Z,91.90
2018-07-25T08:39:08.834Z,91.90
2018-07-25T08:40:13.027Z,92.00
2018-07-25T08:41:17.206Z,92.00
2018-07-25T08:42:21.168Z,92.10
2018-07-25T08:43:25.254Z,92.20
2018-07-25T08:44:29.292Z,92.10
2018-07-25T08:45:33.362Z,92.20
2018-07-25T08:46:37.588Z,92.10
2018-07-25T08:47:41.670Z,92.20
2018-07-25T08:48:45.754Z,92.00
2018-07-25T08:49:49.787Z,91.80
2018-07-25T08:50:53.762Z,91.80
2018-07-25T08:51:57.866Z,91.70
2018-07-25T08:53:01.966Z,92.00
2018-07-25T08:54:06.271Z,92.20
2018-07-25T08:55:10.326Z,92.20
2018-07-25T08:56:14.456Z,92.00
2018-07-25T08:57:18.887Z,92.00
2018-07-25T08:58:22.967Z,91.90
2018-07-25T08:59:26.992Z,91.80
2018-07-25T09:00:31.205Z,91.50
2018-07-25T09:01:35.214Z,91.40
2018-07-25T09:02:39.250Z,91.10
2018-07-25T09:03:43.329Z,91.20
2018-07-25T09:04:47.325Z,91.00
2018-07-25T09:05:51.404Z,91.00
2018-07-25T09:06:55.597Z,91.20
2018-07-25T09:07:59.661Z,91.20
2018-07-25T09:09:06.177Z,91.40
2018-07-25T09:10:10.277Z,90.90
2018-07-25T09:11:14.302Z,90.50
2018-07-25T09:12:18.433Z,90.40
2018-07-25T09:13:22.688Z,90.00
2018-07-25T09:14:26.758Z,89.60
2018-07-25T09:15:30.868Z,89.90
2018-07-25T09:16:35.043Z,90.10
2018-07-25T09:17:39.094Z,88.90
2018-07-25T09:18:43.203Z,89.70
2018-07-25T09:19:47.311Z,90.00
2018-07-25T09:20:51.324Z,90.00
2018-07-25T09:21:55.401Z,89.20
2018-07-25T09:22:59.449Z,88.20
2018-07-25T09:24:03.644Z,88.70
2018-07-25T09:25:07.696Z,88.00
2018-07-25T09:26:11.869Z,87.80
2018-07-25T09:27:16.142Z,88.20
2018-07-25T09:28:20.190Z,87.00
2018-07-25T09:29:24.249Z,86.50
2018-07-25T09:30:28.321Z,86.40
2018-07-25T09:31:32.545Z,87.30
2018-07-25T09:32:36.585Z,87.40
2018-07-25T09:33:40.652Z,87.20
2018-07-25T09:34:44.687Z,87.30
2018-07-25T09:35:48.767Z,87.60
2018-07-25T09:36:52.747Z,88.60
2018-07-25T09:37:56.806Z,87.50
2018-07-25T09:39:00.966Z,87.00
2018-07-25T09:40:05.316Z,86.40
2018-07-25T09:42:13.422Z,85.70
2018-07-25T09:43:17.581Z,85.90
2018-07-25T09:44:21.945Z,86.90
2018-07-25T09:45:25.993Z,87.80
2018-07-25T09:46:30.013Z,86.70
2018-07-25T09:47:34.114Z,87.10
2018-07-25T09:48:38.247Z,85.60
2018-07-25T09:49:42.342Z,85.00
2018-07-25T09:50:46.489Z,84.50
2018-07-25T09:51:51.326Z,84.20
2018-07-25T09:52:55.423Z,83.10
2018-07-25T09:53:59.516Z,82.60
2018-07-25T09:55:03.610Z,83.30
2018-07-25T09:56:07.587Z,84.30
2018-07-25T09:57:11.653Z,84.50
2018-07-25T09:58:15.691Z,85.70
2018-07-25T09:59:19.739Z,85.00
2018-07-25T10:00:29.320Z,85.70
2018-07-25T10:01:33.359Z,86.70
2018-07-25T10:02:37.966Z,86.80
2018-07-25T10:03:42.186Z,86.70
2018-07-25T10:04:46.254Z,86.00
2018-07-25T10:05:50.399Z,86.30
2018-07-25T10:06:54.723Z,85.70
2018-07-25T10:07:58.707Z,85.40
2018-07-25T10:09:02.962Z,85.60
2018-07-25T10:10:07.409Z,85.90
2018-07-25T10:11:11.453Z,85.60
2018-07-25T10:12:15.773Z,85.90
2018-07-25T10:13:19.775Z,85.40
2018-07-25T10:14:24.396Z,85.00
2018-07-25T10:15:28.967Z,83.50
2018-07-25T10:16:33.112Z,83.10
2018-07-25T10:17:37.500Z,82.30
2018-07-25T10:18:41.685Z,81.70
2018-07-25T10:19:45.875Z,82.30
2018-07-25T10:20:49.975Z,82.20
2018-07-25T10:21:54.120Z,83.10
2018-07-25T10:22:58.146Z,84.30
2018-07-25T10:24:02.289Z,84.50
2018-07-25T10:25:06.356Z,83.60
2018-07-25T10:26:10.485Z,83.10
2018-07-25T10:27:14.491Z,83.20
2018-07-25T10:28:18.503Z,82.70
2018-07-25T10:29:22.688Z,82.80
2018-07-25T10:30:26.928Z,83.10
2018-07-25T10:31:31.276Z,83.00
2018-07-25T10:32:35.301Z,83.20
2018-07-25T10:33:39.455Z,83.70
2018-07-25T10:34:43.516Z,83.50
2018-07-25T10:35:47.884Z,83.70
2018-07-25T10:36:51.916Z,83.40
2018-07-25T10:37:55.962Z,84.10
2018-07-25T10:39:00.227Z,82.10
2018-07-25T10:40:04.887Z,83.00
2018-07-25T10:41:08.954Z,81.80
2018-07-25T10:42:13.334Z,82.20
2018-07-25T10:43:17.399Z,80.40
2018-07-25T10:44:21.450Z,81.10
2018-07-25T10:45:25.553Z,81.50
2018-07-25T10:46:29.516Z,81.80
2018-07-25T10:47:33.650Z,81.80
2018-07-25T10:48:37.712Z,81.60
2018-07-25T10:49:41.722Z,81.30
2018-07-25T10:50:45.841Z,80.30
2018-07-25T10:51:49.850Z,80.20
2018-07-25T10:52:53.936Z,80.80
2018-07-25T10:53:58.035Z,80.70
2018-07-25T10:55:02.183Z,81.10
2018-07-25T10:56:06.523Z,81.40
2018-07-25T10:57:10.586Z,81.20
2018-07-25T10:58:14.642Z,81.30
2018-07-25T10:59:18.669Z,81.80
2018-07-25T11:00:22.807Z,82.50
2018-07-25T11:01:26.870Z,82.70
2018-07-25T11:02:31.029Z,83.10
2018-07-25T11:03:35.074Z,82.20
2018-07-25T11:04:39.119Z,80.70
2018-07-25T11:05:43.183Z,80.90
2018-07-25T11:06:47.414Z,80.80
2018-07-25T11:07:51.676Z,81.80
2018-07-25T11:08:55.767Z,79.70
2018-07-25T11:09:59.800Z,80.30
2018-07-25T11:11:03.882Z,80.20
2018-07-25T11:12:08.114Z,79.70
2018-07-25T11:13:12.469Z,78.90
2018-07-25T11:14:16.516Z,78.90
2018-07-25T11:15:20.593Z,79.30
2018-07-25T11:16:25.206Z,79.90
2018-07-25T11:17:29.214Z,81.00
2018-07-25T11:18:33.398Z,81.40
2018-07-25T11:19:37.470Z,81.30
2018-07-25T11:20:41.539Z,81.30
2018-07-25T11:21:45.543Z,81.60
2018-07-25T11:22:56.037Z,81.90
2018-07-25T11:24:00.095Z,80.60
2018-07-25T11:25:04.395Z,80.30
2018-07-25T11:26:08.438Z,80.30
2018-07-25T11:27:12.611Z,80.10
2018-07-25T11:28:16.664Z,79.00
2018-07-25T11:29:20.744Z,79.30
2018-07-25T11:30:24.780Z,79.80
2018-07-25T11:31:28.822Z,80.10
2018-07-25T11:32:32.805Z,80.80
2018-07-25T11:33:36.935Z,80.80
2018-07-25T11:34:41.063Z,80.40
2018-07-25T11:35:45.205Z,80.60
2018-07-25T11:36:49.217Z,80.70
2018-07-25T11:37:53.245Z,80.10
2018-07-25T11:38:57.373Z,78.90
2018-07-25T11:40:01.385Z,79.00
2018-07-25T11:41:05.787Z,78.20
2018-07-25T11:42:09.895Z,78.30
2018-07-25T11:43:13.931Z,77.50
2018-07-25T11:44:17.951Z,77.00
2018-07-25T11:45:22.030Z,77.00
2018-07-25T11:46:26.132Z,77.70
2018-07-25T11:47:30.211Z,76.90
2018-07-25T11:48:34.226Z,77.00
2018-07-25T11:49:38.306Z,76.90
2018-07-25T11:50:42.406Z,76.70
2018-07-25T11:51:46.513Z,77.20
2018-07-25T11:52:50.619Z,77.60
2018-07-25T11:53:54.675Z,77.70
2018-07-25T11:54:59.162Z,77.60
2018-07-25T11:56:03.289Z,75.30
2018-07-25T11:57:07.247Z,74.80
2018-07-25T11:58:11.301Z,75.10
2018-07-25T11:59:15.441Z,74.70
2018-07-25T12:00:19.481Z,74.60
2018-07-25T12:01:23.581Z,74.80
2018-07-25T12:02:27.584Z,75.60
2018-07-25T12:03:31.937Z,74.10
2018-07-25T12:04:36.043Z,74.60
2018-07-25T12:05:40.050Z,73.30
2018-07-25T12:06:44.095Z,74.30
2018-07-25T12:07:48.116Z,72.30
2018-07-25T12:08:52.275Z,73.10
2018-07-25T12:09:56.300Z,72.70
2018-07-25T12:11:00.314Z,72.60
2018-07-25T12:12:04.419Z,72.10
2018-07-25T12:13:08.489Z,72.60
2018-07-25T12:14:13.723Z,72.60
2018-07-25T12:15:18.173Z,72.30
2018-07-25T12:16:22.243Z,72.80
2018-07-25T12:17:26.683Z,71.10
2018-07-25T12:18:30.724Z,71.60
2018-07-25T12:19:34.776Z,70.60
2018-07-25T12:20:38.830Z,71.70
2018-07-25T12:21:42.934Z,71.30
2018-07-25T12:22:46.970Z,71.10
2018-07-25T12:23:50.969Z,71.90
2018-07-25T12:24:55.029Z,70.40
2018-07-25T12:25:59.182Z,69.60
2018-07-25T12:27:03.366Z,68.90
2018-07-25T12:28:07.381Z,69.40
2018-07-25T12:29:14.456Z,69.00
2018-07-25T12:30:18.444Z,69.50
2018-07-25T12:31:22.515Z,68.80
2018-07-25T12:32:26.523Z,68.30
2018-07-25T12:33:30.612Z,68.20
2018-07-25T12:34:34.650Z,69.30
2018-07-25T12:35:38.722Z,68.10
2018-07-25T12:36:42.898Z,68.40
2018-07-25T12:37:46.923Z,67.90
2018-07-25T12:38:50.990Z,68.10
2018-07-25T12:39:54.985Z,68.80
2018-07-25T12:40:59.035Z,69.50
2018-07-25T12:42:03.051Z,68.50
2018-07-25T12:43:07.195Z,66.90
2018-07-25T12:44:11.297Z,66.10
2018-07-25T12:45:15.639Z,66.40
2018-07-25T12:46:19.720Z,67.00
2018-07-25T12:47:23.783Z,66.40
2018-07-25T12:48:27.893Z,65.90
2018-07-25T12:50:35.501Z,65.40
2018-07-25T12:51:39.623Z,65.00
2018-07-25T12:52:43.962Z,65.70
2018-07-25T12:53:48.180Z,66.30
2018-07-25T12:54:52.118Z,65.40
2018-07-25T12:55:56.119Z,64.50
2018-07-25T12:57:00.144Z,64.20
2018-07-25T12:58:04.307Z,62.80
2018-07-25T12:59:08.358Z,63.00
2018-07-25T13:00:12.441Z,62.80
2018-07-25T13:01:16.619Z,61.30
2018-07-25T13:02:20.643Z,62.80
2018-07-25T13:03:25.159Z,62.40
2018-07-25T13:04:29.654Z,60.90
2018-07-25T13:05:33.694Z,60.10
2018-07-25T13:06:38.081Z,60.40
2018-07-25T13:07:42.211Z,59.40
2018-07-25T13:08:46.254Z,59.90
2018-07-25T13:09:50.314Z,59.90
2018-07-25T13:10:54.477Z,59.30
2018-07-25T13:11:58.563Z,58.60
2018-07-25T13:13:02.618Z,58.70
2018-07-25T13:14:07.202Z,57.90
2018-07-25T13:15:11.263Z,58.40
2018-07-25T13:16:15.369Z,58.50
2018-07-25T13:17:19.439Z,58.10
2018-07-25T13:19:27.160Z,57.90
2018-07-25T13:20:31.179Z,58.40
2018-07-25T13:21:35.596Z,57.70
2018-07-25T13:22:41.543Z,58.40
2018-07-25T13:24:49.689Z,57.20
2018-07-25T13:25:56.846Z,57.60
2018-07-25T13:27:00.918Z,56.90
2018-07-25T13:28:05.044Z,57.30
2018-07-25T13:29:10.570Z,57.80
2018-07-25T13:30:14.751Z,58.40
2018-07-25T13:31:18.955Z,58.60
2018-07-25T13:32:22.989Z,58.40
2018-07-25T13:33:27.176Z,58.10
2018-07-25T13:34:31.303Z,57.90
2018-07-25T13:35:35.281Z,57.70
2018-07-25T13:36:39.385Z,57.00
2018-07-25T13:37:43.558Z,56.60
2018-07-25T13:38:47.633Z,56.50
2018-07-25T13:39:51.773Z,56.40
2018-07-25T13:40:55.809Z,56.30
2018-07-25T13:41:59.921Z,56.30
2018-07-25T13:43:04.056Z,56.70
2018-07-25T13:44:08.830Z,56.70
2018-07-25T13:45:12.878Z,56.70
2018-07-25T13:46:17.332Z,55.60
2018-07-25T13:47:21.244Z,56.00
2018-07-25T13:48:25.422Z,55.60
2018-07-25T13:49:29.485Z,54.80
2018-07-25T13:50:33.602Z,55.50
2018-07-25T13:51:37.681Z,56.50
2018-07-25T13:52:41.743Z,56.90
2018-07-25T13:53:46.338Z,56.40
2018-07-25T13:54:50.618Z,56.30
2018-07-25T13:55:54.701Z,56.00
2018-07-25T13:56:58.711Z,56.30
2018-07-25T13:58:02.731Z,56.80